createdAt,value
2018-07-17T00:02:24.169Z,7.80
2018-07-17T00:04:51.633Z,11.00
2018-07-17T00:07:19.177Z,7.80
2018-07-17T00:09:46.650Z,8.80
2018-07-17T00:12:14.007Z,7.40
2018-07-17T00:14:41.455Z,7.80
2018-07-17T00:17:08.894Z,11.00
2018-07-17T00:19:36.462Z,7.80
2018-07-17T00:22:03.806Z,11.80
2018-07-17T00:24:31.300Z,12.00
2018-07-17T00:26:58.761Z,7.80
2018-07-17T00:29:26.197Z,13.00
2018-07-17T00:31:53.654Z,9.00
2018-07-17T00:34:21.106Z,8.40
2018-07-17T00:36:48.561Z,6.80
2018-07-17T00:39:16.066Z,8.20
2018-07-17T00:41:43.461Z,10.00
2018-07-17T00:44:10.972Z,10.00
2018-07-17T00:46:38.388Z,7.00
2018-07-17T00:49:05.855Z,10.00
2018-07-17T00:51:33.280Z,10.40
2018-07-17T00:54:00.775Z,10.20
2018-07-17T00:56:28.230Z,10.00
2018-07-17T00:58:55.658Z,9.60
2018-07-17T01:01:23.137Z,10.00
2018-07-17T01:03:51.602Z,8.20
2018-07-17T01:06:19.063Z,8.80
2018-07-17T01:08:46.541Z,10.60
2018-07-17T01:11:13.983Z,9.60
2018-07-17T01:13:41.485Z,10.40
2018-07-17T01:16:08.938Z,8.60
2018-07-17T01:18:36.337Z,8.20
2018-07-17T01:21:03.795Z,11.40
2018-07-17T01:23:31.274Z,10.80
2018-07-17T01:25:58.746Z,9.40
2018-07-17T01:28:26.165Z,10.00
2018-07-17T01:30:53.674Z,10.00
2018-07-17T01:33:21.150Z,10.20
2018-07-17T01:35:48.553Z,7.80
2018-07-17T01:38:16.010Z,10.00
2018-07-17T01:40:43.479Z,10.20
2018-07-17T01:43:10.938Z,10.00
2018-07-17T01:45:38.386Z,8.80
2018-07-17T01:48:05.890Z,12.00
2018-07-17T01:50:33.319Z,10.00
2018-07-17T01:53:00.761Z,10.00
2018-07-17T01:55:28.226Z,10.60
2018-07-17T01:57:55.662Z,10.80
2018-07-17T02:00:23.145Z,9.60
2018-07-17T02:02:50.590Z,10.00
2018-07-17T02:05:18.046Z,8.80
2018-07-17T02:07:45.494Z,10.40
2018-07-17T02:10:12.962Z,8.20
2018-07-17T02:12:40.399Z,10.00
2018-07-17T02:15:07.937Z,8.20
2018-07-17T02:17:35.346Z,10.00
2018-07-17T02:20:02.846Z,7.80
2018-07-17T02:22:30.250Z,8.20
2018-07-17T02:24:57.692Z,10.00
2018-07-17T02:27:25.170Z,11.20
2018-07-17T02:29:52.601Z,7.80
2018-07-17T02:32:20.097Z,10.60
2018-07-17T02:34:47.530Z,12.00
2018-07-17T02:37:14.993Z,10.80
2018-07-17T02:39:42.430Z,10.60
2018-07-17T02:42:09.962Z,7.20
2018-07-17T02:44:37.375Z,10.40
2018-07-17T02:47:04.815Z,10.40
2018-07-17T02:49:32.277Z,10.40
2018-07-17T02:51:59.779Z,11.60
2018-07-17T02:54:27.174Z,10.60
2018-07-17T02:56:54.655Z,9.20
2018-07-17T02:59:22.103Z,10.60
2018-07-17T03:01:49.595Z,11.00
2018-07-17T03:04:16.997Z,9.80
2018-07-17T03:06:44.500Z,11.00
2018-07-17T03:09:11.921Z,12.40
2018-07-17T03:11:39.428Z,10.00
2018-07-17T03:14:06.876Z,14.80
2018-07-17T03:16:34.298Z,11.60
2018-07-17T03:19:01.742Z,9.40
2018-07-17T03:21:29.202Z,10.00
2018-07-17T03:23:56.734Z,9.00
2018-07-17T03:26:24.125Z,10.00
2018-07-17T03:28:51.598Z,11.60
2018-07-17T03:31:19.034Z,10.00
2018-07-17T03:33:46.518Z,10.60
2018-07-17T03:36:13.863Z,13.40
2018-07-17T03:38:41.311Z,11.60
2018-07-17T03:41:08.826Z,11.00
2018-07-17T03:43:36.230Z,13.00
2018-07-17T03:46:04.041Z,12.00
2018-07-17T03:48:31.542Z,11.00
2018-07-17T03:50:59.027Z,10.00
2018-07-17T03:53:26.486Z,11.20
2018-07-17T03:55:53.962Z,10.60
2018-07-17T03:58:22.046Z,10.80
2018-07-17T04:00:49.465Z,8.80
2018-07-17T04:03:16.925Z,11.00
2018-07-17T04:05:44.363Z,11.40
2018-07-17T04:08:11.838Z,11.00
2018-07-17T04:10:39.284Z,13.20
2018-07-17T04:13:06.754Z,11.00
2018-07-17T04:15:34.222Z,11.00
2018-07-17T04:18:01.622Z,8.00
2018-07-17T04:20:29.150Z,10.60
2018-07-17T04:22:56.576Z,10.00
2018-07-17T04:25:24.043Z,10.00
2018-07-17T04:27:52.146Z,10.00
2018-07-17T04:30:19.566Z,10.80
2018-07-17T04:32:47.011Z,11.80
2018-07-17T04:35:14.572Z,10.20
2018-07-17T04:37:41.950Z,13.00
2018-07-17T04:40:09.386Z,11.60
2018-07-17T04:42:36.863Z,10.00
2018-07-17T04:45:04.290Z,10.80
2018-07-17T04:47:31.805Z,10.40
2018-07-17T04:49:59.210Z,10.40
2018-07-17T04:52:26.678Z,10.20
2018-07-17T04:54:54.140Z,12.20
2018-07-17T04:57:21.590Z,10.80
2018-07-17T04:59:49.029Z,10.00
2018-07-17T05:02:16.498Z,10.00
2018-07-17T05:04:44.014Z,10.60
2018-07-17T05:07:12.206Z,9.60
2018-07-17T05:09:39.674Z,11.80
2018-07-17T05:12:07.152Z,11.20
2018-07-17T05:14:34.693Z,12.00
2018-07-17T05:17:02.069Z,11.00
2018-07-17T05:19:29.505Z,10.60
2018-07-17T05:21:56.980Z,11.60
2018-07-17T05:24:24.474Z,11.80
2018-07-17T05:26:51.904Z,10.20
2018-07-17T05:29:19.534Z,10.00
2018-07-17T05:31:47.018Z,10.60
2018-07-17T05:34:14.445Z,8.20
2018-07-17T05:36:41.938Z,9.40
2018-07-17T05:39:09.366Z,10.20
2018-07-17T05:41:36.854Z,10.60
2018-07-17T05:44:04.367Z,10.00
2018-07-17T05:46:31.778Z,10.20
2018-07-17T05:48:59.218Z,13.20
2018-07-17T05:51:26.645Z,9.20
2018-07-17T05:53:54.120Z,10.20
2018-07-17T05:56:21.583Z,9.80
2018-07-17T05:58:49.018Z,11.80
2018-07-17T06:01:16.519Z,11.00
2018-07-17T06:03:44.013Z,11.00
2018-07-17T06:06:11.394Z,11.20
2018-07-17T06:08:38.887Z,11.40
2018-07-17T06:11:06.422Z,11.00
2018-07-17T06:13:33.786Z,11.80
2018-07-17T06:16:01.269Z,9.20
2018-07-17T06:18:28.730Z,8.20
2018-07-17T06:20:56.233Z,10.60
2018-07-17T06:23:23.641Z,12.20
2018-07-17T06:25:51.075Z,11.20
2018-07-17T06:28:18.505Z,9.80
2018-07-17T06:30:46.011Z,10.40
2018-07-17T06:33:13.430Z,11.60
2018-07-17T06:35:40.897Z,11.40
2018-07-17T06:38:08.382Z,10.60
2018-07-17T06:40:35.866Z,13.60
2018-07-17T06:43:03.311Z,14.60
2018-07-17T06:45:30.818Z,9.80
2018-07-17T06:47:58.211Z,12.00
2018-07-17T06:50:25.711Z,13.20
2018-07-17T06:52:53.133Z,12.80
2018-07-17T06:55:20.573Z,12.40
2018-07-17T06:57:48.028Z,15.40
2018-07-17T07:00:15.477Z,14.40
2018-07-17T07:02:42.939Z,11.60
2018-07-17T07:05:10.480Z,16.00
2018-07-17T07:07:37.838Z,14.40
2018-07-17T07:10:05.303Z,14.60
2018-07-17T07:12:32.765Z,13.00
2018-07-17T07:15:00.273Z,15.00
2018-07-17T07:17:27.692Z,12.80
2018-07-17T07:19:55.135Z,16.60
2018-07-17T07:22:22.756Z,13.80
2018-07-17T07:24:50.261Z,12.00
2018-07-17T07:27:17.698Z,13.00
2018-07-17T07:29:45.233Z,11.80
2018-07-17T07:32:12.690Z,15.00
2018-07-17T07:34:40.105Z,12.20
2018-07-17T07:37:07.542Z,11.60
2018-07-17T07:39:34.994Z,15.20
2018-07-17T07:42:02.629Z,14.60
2018-07-17T07:44:30.146Z,13.40
2018-07-17T07:46:57.647Z,12.40
2018-07-17T07:49:25.019Z,12.40
2018-07-17T07:51:52.471Z,13.20
2018-07-17T07:54:19.942Z,16.40
2018-07-17T07:56:47.402Z,12.80
2018-07-17T07:59:14.861Z,12.40
2018-07-17T08:01:42.316Z,13.00
2018-07-17T08:04:09.795Z,15.80
2018-07-17T08:06:37.223Z,13.80
2018-07-17T08:09:06.219Z,11.40
2018-07-17T08:11:33.596Z,13.60
2018-07-17T08:14:01.038Z,14.20
2018-07-17T08:16:29.525Z,15.20
2018-07-17T08:18:56.977Z,12.80
2018-07-17T08:21:24.461Z,13.40
2018-07-17T08:23:51.897Z,12.40
2018-07-17T08:26:19.353Z,13.60
2018-07-17T08:28:47.177Z,13.20
2018-07-17T08:31:14.677Z,12.00
2018-07-17T08:33:42.097Z,14.40
2018-07-17T08:36:09.590Z,12.80
2018-07-17T08:38:37.077Z,12.60
2018-07-17T08:41:04.485Z,16.00
2018-07-17T08:43:32.117Z,15.80
2018-07-17T08:45:59.382Z,13.20
2018-07-17T08:48:26.865Z,12.60
2018-07-17T08:50:54.313Z,15.00
2018-07-17T08:53:21.809Z,13.80
2018-07-17T08:55:49.239Z,14.00
2018-07-17T08:58:16.723Z,16.80
2018-07-17T09:00:44.388Z,15.00
2018-07-17T09:03:11.912Z,13.40
2018-07-17T09:05:39.282Z,15.20
2018-07-17T09:08:06.782Z,13.40
2018-07-17T09:10:34.190Z,13.20
2018-07-17T09:13:01.711Z,15.60
2018-07-17T09:15:29.120Z,16.40
2018-07-17T09:17:56.562Z,13.60
2018-07-17T09:20:24.014Z,13.60
2018-07-17T09:22:51.491Z,13.00
2018-07-17T09:25:18.963Z,15.20
2018-07-17T09:27:46.402Z,15.80
2018-07-17T09:30:13.859Z,15.00
2018-07-17T09:32:41.440Z,13.40
2018-07-17T09:35:08.985Z,13.40
2018-07-17T09:37:36.489Z,12.80
2018-07-17T09:40:04.273Z,17.80
2018-07-17T09:42:31.829Z,13.40
2018-07-17T09:44:59.281Z,14.60
2018-07-17T09:47:26.748Z,15.00
2018-07-17T09:49:54.125Z,16.20
2018-07-17T09:52:21.610Z,12.80
2018-07-17T09:54:49.042Z,12.80
2018-07-17T09:57:16.604Z,13.20
2018-07-17T09:59:44.168Z,12.00
2018-07-17T10:02:11.925Z,14.20
2018-07-17T10:04:39.290Z,14.20
2018-07-17T10:07:06.738Z,14.20
2018-07-17T10:09:34.292Z,14.60
2018-07-17T10:12:01.743Z,11.00
2018-07-17T10:14:30.423Z,12.60
2018-07-17T10:16:57.772Z,11.80
2018-07-17T10:19:25.305Z,14.40
2018-07-17T10:21:52.702Z,12.40
2018-07-17T10:24:20.256Z,13.20
2018-07-17T10:26:47.874Z,12.00
2018-07-17T10:29:15.307Z,13.40
2018-07-17T10:31:42.756Z,12.00
2018-07-17T10:34:10.216Z,10.00
2018-07-17T10:36:37.644Z,13.00
2018-07-17T10:39:07.272Z,11.40
2018-07-17T10:41:34.695Z,12.00
2018-07-17T10:44:02.097Z,10.40
2018-07-17T10:46:29.574Z,10.40
2018-07-17T10:48:57.082Z,13.40
2018-07-17T10:51:24.521Z,13.20
2018-07-17T10:53:51.936Z,11.00
2018-07-17T10:56:19.378Z,11.00
2018-07-17T10:58:47.505Z,11.00
2018-07-17T11:01:14.878Z,9.80
2018-07-17T11:03:45.874Z,12.40
2018-07-17T11:06:13.329Z,12.80
2018-07-17T11:08:40.783Z,12.60
2018-07-17T11:11:08.229Z,12.00
2018-07-17T11:13:35.655Z,13.20
2018-07-17T11:16:03.358Z,14.00
2018-07-17T11:18:30.769Z,11.00
2018-07-17T11:20:58.262Z,11.40
2018-07-17T11:23:25.675Z,12.80
2018-07-17T11:25:53.129Z,13.20
2018-07-17T11:28:23.720Z,10.40
2018-07-17T11:30:52.226Z,11.80
2018-07-17T11:36:17.178Z,10.20
2018-07-17T11:38:44.694Z,13.00
2018-07-17T11:41:12.070Z,11.00
2018-07-17T11:43:39.570Z,13.20
2018-07-17T11:46:07.077Z,14.40
2018-07-17T11:48:34.482Z,13.20
2018-07-17T11:51:01.939Z,13.20
2018-07-17T11:53:29.379Z,12.00
2018-07-17T11:55:56.836Z,11.00
2018-07-17T11:58:24.337Z,14.20
2018-07-17T12:00:51.737Z,14.40
2018-07-17T12:03:19.224Z,12.00
2018-07-17T12:05:46.738Z,13.20
2018-07-17T12:08:14.127Z,12.20
2018-07-17T12:10:41.562Z,14.40
2018-07-17T12:13:09.185Z,17.20
2018-07-17T12:15:36.693Z,17.00
2018-07-17T12:18:04.225Z,14.80
2018-07-17T12:20:31.716Z,17.20
2018-07-17T12:22:59.083Z,15.40
2018-07-17T12:25:26.535Z,14.00
2018-07-17T12:27:54.068Z,16.00
2018-07-17T12:30:21.482Z,14.00
2018-07-17T12:32:48.902Z,13.20
2018-07-17T12:35:16.409Z,14.60
2018-07-17T12:37:43.846Z,12.40
2018-07-17T12:40:11.265Z,14.40
2018-07-17T12:42:38.742Z,14.00
2018-07-17T12:45:06.176Z,12.80
2018-07-17T12:47:33.611Z,12.40
2018-07-17T12:50:01.391Z,12.00
2018-07-17T12:52:28.745Z,11.00
2018-07-17T12:54:56.204Z,11.60
2018-07-17T12:57:24.407Z,11.20
2018-07-17T12:59:52.316Z,11.60
2018-07-17T13:02:20.134Z,9.00
2018-07-17T13:04:47.939Z,9.00
2018-07-17T13:07:15.655Z,10.20
2018-07-17T13:09:43.773Z,9.00
2018-07-17T13:12:11.568Z,8.00
2018-07-17T13:14:39.879Z,8.00
2018-07-17T13:17:07.670Z,8.00
2018-07-17T13:19:35.322Z,8.60
2018-07-17T13:22:03.280Z,9.60
2018-07-17T13:24:31.197Z,8.60
2018-07-17T13:26:59.031Z,7.80
2018-07-17T13:29:30.089Z,8.00
2018-07-17T13:31:58.091Z,8.80
2018-07-17T13:34:26.103Z,7.20
2018-07-17T13:36:53.898Z,8.40
2018-07-17T13:39:21.644Z,7.20
2018-07-17T13:41:49.584Z,8.20
2018-07-17T13:44:17.403Z,8.80
2018-07-17T13:46:45.114Z,9.20
2018-07-17T13:49:12.856Z,8.00
2018-07-17T13:51:40.680Z,7.80
2018-07-17T13:54:08.451Z,9.40
2018-07-17T13:56:37.078Z,9.40
2018-07-17T13:59:04.729Z,8.20
2018-07-17T14:01:32.414Z,8.20
2018-07-17T14:04:00.316Z,8.00
2018-07-17T14:06:28.085Z,6.00
2018-07-17T14:08:55.727Z,7.20
2018-07-17T14:11:23.428Z,8.60
2018-07-17T14:13:51.188Z,8.00
2018-07-17T14:16:19.026Z,6.00
2018-07-17T14:18:46.922Z,8.00
2018-07-17T14:21:14.682Z,7.20
2018-07-17T14:23:42.376Z,7.00
2018-07-17T14:26:10.136Z,8.60
2018-07-17T14:28:38.500Z,9.60
2018-07-17T14:31:06.215Z,12.20
2018-07-17T14:33:34.135Z,7.60
2018-07-17T14:36:02.036Z,8.00
2018-07-17T14:38:29.831Z,9.00
2018-07-17T14:40:57.798Z,6.00
2018-07-17T14:43:26.471Z,8.20
2018-07-17T14:45:54.679Z,8.40
2018-07-17T14:48:23.661Z,8.20
2018-07-17T14:50:52.436Z,6.00
2018-07-17T14:53:20.266Z,7.60
2018-07-17T14:55:48.080Z,10.20
2018-07-17T14:58:15.888Z,7.20
2018-07-17T15:00:43.632Z,7.80
2018-07-17T15:03:11.372Z,8.20
2018-07-17T15:05:39.933Z,6.20
2018-07-17T15:08:07.615Z,7.20
2018-07-17T15:10:35.275Z,7.00
2018-07-17T15:13:03.126Z,9.00
2018-07-17T15:15:30.823Z,8.80
2018-07-17T15:17:58.500Z,8.00
2018-07-17T15:20:26.186Z,7.60
2018-07-17T15:22:53.909Z,8.60
2018-07-17T15:25:21.765Z,7.00
2018-07-17T15:27:49.654Z,7.00
2018-07-17T15:30:17.484Z,9.00
2018-07-17T15:32:45.810Z,8.20
2018-07-17T15:35:13.913Z,7.00
2018-07-17T15:37:41.864Z,9.40
2018-07-17T15:40:09.970Z,8.00
2018-07-17T15:42:37.767Z,8.40
2018-07-17T15:45:05.729Z,7.80
2018-07-17T15:47:33.524Z,8.00
2018-07-17T15:50:01.124Z,6.40
2018-07-17T15:52:28.781Z,6.40
2018-07-17T15:54:56.578Z,8.20
2018-07-17T15:57:24.774Z,8.00
2018-07-17T15:59:52.755Z,7.20
2018-07-17T16:02:21.016Z,6.60
2018-07-17T16:04:48.782Z,6.20
2018-07-17T16:07:16.785Z,7.80
2018-07-17T16:09:44.798Z,7.00
2018-07-17T16:12:12.962Z,7.40
2018-07-17T16:14:42.042Z,8.00
2018-07-17T16:17:10.370Z,7.20
2018-07-17T16:19:38.725Z,7.60
2018-07-17T16:22:06.520Z,8.00
2018-07-17T16:24:34.114Z,7.60
2018-07-17T16:27:01.913Z,8.00
2018-07-17T16:29:30.175Z,7.60
2018-07-17T16:31:58.902Z,8.40
2018-07-17T16:34:50.990Z,10.00
2018-07-17T16:37:18.442Z,6.00
2018-07-17T16:39:46.395Z,4.80
2018-07-17T16:42:14.279Z,7.00
2018-07-17T16:44:41.910Z,6.00
2018-07-17T16:47:09.774Z,7.80
2018-07-17T16:49:37.669Z,8.00
2018-07-17T16:52:05.318Z,7.00
2018-07-17T16:54:33.418Z,6.40
2018-07-17T16:57:03.088Z,9.00
2018-07-17T16:59:30.791Z,7.40
2018-07-17T17:02:00.303Z,7.00
2018-07-17T17:04:29.116Z,6.00
2018-07-17T17:06:57.667Z,8.80
2018-07-17T17:09:25.759Z,8.60
2018-07-17T17:11:53.892Z,10.00
2018-07-17T17:14:21.904Z,10.40
2018-07-17T17:16:50.477Z,10.80
2018-07-17T17:19:18.908Z,10.60
2018-07-17T17:21:46.822Z,11.60
2018-07-17T17:24:15.057Z,10.80
2018-07-17T17:26:43.598Z,13.20
2018-07-17T17:29:14.143Z,11.20
2018-07-17T17:31:41.560Z,9.20
2018-07-17T17:34:08.994Z,11.80
2018-07-17T17:36:36.598Z,12.00
2018-07-17T17:39:06.806Z,11.00
2018-07-17T17:41:34.216Z,14.80
2018-07-17T17:44:02.577Z,13.20
2018-07-17T17:46:35.909Z,14.00
2018-07-17T17:49:08.121Z,16.60
2018-07-17T17:51:36.189Z,17.60
2018-07-17T17:54:05.303Z,16.00
2018-07-17T17:56:34.241Z,15.00
2018-07-17T17:59:02.179Z,17.20
2018-07-17T18:01:30.152Z,17.40
2018-07-17T18:03:58.079Z,19.40
2018-07-17T18:06:25.981Z,15.60
2018-07-17T18:08:53.797Z,16.40
2018-07-17T18:11:21.596Z,18.60
2018-07-17T18:13:49.334Z,22.40
2018-07-17T18:16:17.105Z,19.40
2018-07-17T18:18:44.866Z,18.80
2018-07-17T18:21:12.921Z,19.60
2018-07-17T18:23:41.495Z,18.60
2018-07-17T18:26:09.298Z,21.20
2018-07-17T18:28:37.120Z,22.40
2018-07-17T18:31:05.056Z,22.00
2018-07-17T18:33:33.020Z,22.20
2018-07-17T18:36:01.731Z,20.60
2018-07-17T18:38:29.681Z,22.40
2018-07-17T18:40:57.569Z,22.40
2018-07-17T18:43:25.371Z,22.00
2018-07-17T18:45:53.317Z,12.60
2018-07-17T18:48:21.006Z,19.80
2018-07-17T18:50:48.713Z,21.00
2018-07-17T18:53:16.373Z,19.80
2018-07-17T18:55:44.117Z,18.20
2018-07-17T18:58:12.242Z,21.80
2018-07-17T19:00:39.985Z,18.00
2018-07-17T19:03:07.730Z,18.20
2018-07-17T19:05:35.925Z,18.00
2018-07-17T19:08:04.211Z,18.00
2018-07-17T19:10:32.074Z,18.20
2018-07-17T19:13:00.355Z,21.60
2018-07-17T19:15:28.452Z,19.60
2018-07-17T19:17:56.186Z,17.80
2018-07-17T19:20:23.938Z,17.20
2018-07-17T19:22:54.438Z,20.80
2018-07-17T19:25:22.416Z,20.80
2018-07-17T19:27:50.206Z,20.60
2018-07-17T19:30:18.265Z,21.60
2018-07-17T19:32:46.207Z,17.00
2018-07-17T19:35:14.060Z,16.60
2018-07-17T19:37:41.983Z,16.80
2018-07-17T19:40:09.753Z,17.60
2018-07-17T19:42:38.453Z,18.00
2018-07-17T19:45:06.230Z,18.00
2018-07-17T19:47:34.053Z,17.00
2018-07-17T19:50:01.948Z,17.80
2018-07-17T19:52:29.843Z,17.60
2018-07-17T19:54:58.285Z,18.00
2018-07-17T20:00:13.467Z,16.40
2018-07-17T20:02:46.579Z,15.40
2018-07-17T20:05:14.663Z,19.80
2018-07-17T20:07:42.911Z,15.20
2018-07-17T20:10:10.706Z,17.00
2018-07-17T20:12:38.444Z,17.20
2018-07-17T20:15:06.445Z,15.00
2018-07-17T20:17:34.393Z,18.80
2018-07-17T20:20:02.760Z,13.00
2018-07-17T20:22:31.283Z,13.00
2018-07-17T20:24:59.098Z,11.80
2018-07-17T20:27:27.181Z,13.20
2018-07-17T20:29:55.937Z,13.40
2018-07-17T20:32:23.824Z,13.00
2018-07-17T20:34:51.871Z,13.00
2018-07-17T20:37:20.919Z,16.00
2018-07-17T20:39:50.777Z,15.80
2018-07-17T20:42:18.952Z,18.40
2018-07-17T20:47:41.351Z,13.20
2018-07-17T21:17:00.438Z,11.60
2018-07-17T21:19:29.334Z,12.60
2018-07-17T21:21:57.290Z,12.00
2018-07-17T21:24:25.622Z,9.00
2018-07-17T21:26:53.455Z,11.60
2018-07-17T21:29:21.184Z,9.60
2018-07-17T21:31:49.030Z,8.00
2018-07-17T21:34:17.881Z,8.60
2018-07-17T21:36:46.465Z,7.40
2018-07-17T21:39:14.703Z,8.40
2018-07-17T21:41:42.507Z,7.00
2018-07-17T21:44:10.870Z,6.20
2018-07-17T21:46:39.182Z,8.00
2018-07-17T21:49:06.871Z,6.80
2018-07-17T21:51:34.674Z,7.40
2018-07-17T21:54:04.611Z,8.00
2018-07-17T21:56:32.393Z,6.00
2018-07-17T21:59:00.030Z,3.80
2018-07-17T22:01:28.750Z,6.00
2018-07-17T22:03:56.628Z,2.80
2018-07-17T22:06:25.291Z,6.00
2018-07-17T22:08:53.399Z,4.60
2018-07-17T22:11:21.376Z,4.20
2018-07-17T22:13:49.929Z,6.00
2018-07-17T22:16:18.229Z,4.80
2018-07-17T22:18:46.354Z,4.00
2018-07-17T22:21:14.438Z,4.20
2018-07-17T22:23:43.585Z,4.00
2018-07-17T22:26:11.597Z,3.60
2018-07-17T22:28:39.520Z,4.00
2018-07-17T22:31:08.591Z,4.20
2018-07-17T22:33:37.992Z,4.20
2018-07-17T22:36:06.531Z,4.00
2018-07-17T22:38:34.497Z,4.40
2018-07-17T22:41:04.521Z,6.00
2018-07-17T22:43:32.225Z,4.00
2018-07-17T22:45:59.877Z,6.20
2018-07-17T22:48:27.754Z,2.60
2018-07-17T22:50:55.535Z,6.40
2018-07-17T22:53:23.357Z,4.40
2018-07-17T22:55:51.119Z,3.60
2018-07-17T22:58:18.897Z,4.80
2018-07-17T23:00:46.766Z,2.80
2018-07-17T23:03:14.625Z,5.00
2018-07-17T23:05:42.394Z,3.60
2018-07-17T23:08:10.019Z,6.60
2018-07-17T23:10:37.818Z,6.20
2018-07-17T23:13:05.686Z,6.40
2018-07-17T23:15:33.494Z,6.40
2018-07-17T23:18:01.339Z,6.60
2018-07-17T23:20:29.082Z,4.20
2018-07-17T23:22:56.921Z,6.80
2018-07-17T23:25:24.807Z,4.80
2018-07-17T23:27:52.654Z,7.00
2018-07-17T23:30:20.569Z,5.80
2018-07-17T23:32:48.777Z,6.40
2018-07-17T23:35:16.726Z,5.20
2018-07-17T23:37:44.500Z,5.20
2018-07-17T23:40:12.443Z,6.80
2018-07-17T23:42:40.279Z,6.00
2018-07-17T23:45:08.096Z,5.20
2018-07-17T23:47:36.522Z,7.40
2018-07-17T23:50:04.169Z,6.60
2018-07-17T23:52:31.957Z,5.80
2018-07-17T23:54:59.488Z,6.40
2018-07-17T23:57:27.745Z,4.20
